Archival Weather

Chicago O'Hare International

Chicago, Illinois (KORD)

Report from: Saturday, November 5, 2022 1:51 AM CDT
Current time: Saturday, March 2, 2024 3:05 AM CST

Current weather – Weather history – Daily summaries
Weather forecast

Present weatherRain
Temperature17.8°C (64.0°F)
Dew point14.4°C (57.9°F)
Winds 17 kts (8.7 m/s, 19.6 mph) South-Southwest (200°)
Wind gusts 30 kts (15.4 m/s, 34.5 mph)
Peak wind 37 kts (19 m/s, 42.6 mph) South (190°) at 06:34
Visibility5 mi. (8 km)
Clouds Ceiling: Broken clouds 3,500 ft. (1,067 m)
Overcast 5,500 ft. (1,676 m)
Altimeter29.68 in.Hg (1005 mB)
Precipitiation0.02 in. (1 mm)
Precip. events Rain began 5:52 AM
Relative humidity81 %
Density altitude839 ft. (256 m)
Sea-level pressure100.5 kPa (1005 mB, 29.67 in.Hg)
Remarks Automated weather observing station with precipitation discriminator
Flight conditions Visual Meteorological Conditions
Raw dataKORD 050651Z 20017G30KT 5SM RA BKN035 OVC055 18/14 A2968 RMK AO2 PK WND 19037/0634 RAB0552 SLP049 P0002 T01780144
An error has occurred. This application may no longer respond until reloaded. Reload 🗙